sensor_id;sensor_type;location;lat;lon;timestamp;pressure;altitude;pressure_sealevel;temperature;humidity
34454;BME280;60061;52.080;5.312;2023-01-16T00:00:51;99502.0;;;5.97;100.0
34454;BME280;60061;52.080;5.312;2023-01-16T00:01:35;99502.0;;;5.97;100.0
34454;BME280;60061;52.080;5.312;2023-01-16T00:03:12;99491.0;;;5.99;100.0
34454;BME280;60061;52.080;5.312;2023-01-16T00:04:09;99491.0;;;5.99;100.0
34454;BME280;60061;52.080;5.312;2023-01-16T00:05:50;99491.0;;;5.94;100.0
34454;BME280;60061;52.080;5.312;2023-01-16T00:06:25;99491.0;;;5.94;100.0
34454;BME280;60061;52.080;5.312;2023-01-16T00:07:32;99485.0;;;6.03;100.0
34454;BME280;60061;52.080;5.312;2023-01-16T00:08:01;99485.0;;;6.03;100.0
34454;BME280;60061;52.080;5.312;2023-01-16T00:09:12;99477.0;;;6.16;100.0
34454;BME280;60061;52.080;5.312;2023-01-16T00:09:38;99477.0;;;6.16;100.0
34454;BME280;60061;52.080;5.312;2023-01-16T00:11:15;99469.0;;;6.06;100.0
34454;BME280;60061;52.080;5.312;2023-01-16T00:12:28;99469.0;;;6.06;100.0
34454;BME280;60061;52.080;5.312;2023-01-16T00:14:05;99465.0;;;6.18;100.0
34454;BME280;60061;52.080;5.312;2023-01-16T00:14:30;99465.0;;;6.18;100.0
34454;BME280;60061;52.080;5.312;2023-01-16T00:15:44;99462.0;;;6.17;100.0
34454;BME280;60061;52.080;5.312;2023-01-16T00:16:07;99462.0;;;6.17;100.0
34454;BME280;60061;52.080;5.312;2023-01-16T00:17:44;99463.0;;;6.06;100.0
34454;BME280;60061;52.080;5.312;2023-01-16T00:20:58;99461.0;;;6.04;100.0
34454;BME280;60061;52.080;5.312;2023-01-16T00:22:35;99459.0;;;6.0;100.0
34454;BME280;60061;52.080;5.312;2023-01-16T00:24:12;99453.0;;;5.92;100.0
34454;BME280;60061;52.080;5.312;2023-01-16T00:27:26;99453.0;;;6.08;100.0
34454;BME280;60061;52.080;5.312;2023-01-16T00:29:03;99450.0;;;5.97;100.0
34454;BME280;60061;52.080;5.312;2023-01-16T00:30:41;99440.0;;;6.02;100.0
34454;BME280;60061;52.080;5.312;2023-01-16T00:32:18;99440.0;;;6.01;100.0
34454;BME280;60061;52.080;5.312;2023-01-16T00:35:33;99436.0;;;6.13;100.0
34454;BME280;60061;52.080;5.312;2023-01-16T00:37:11;99426.0;;;6.1;100.0
34454;BME280;60061;52.080;5.312;2023-01-16T00:38:49;99423.0;;;5.8;100.0
34454;BME280;60061;52.080;5.312;2023-01-16T00:42:03;99425.0;;;5.98;100.0
34454;BME280;60061;52.080;5.312;2023-01-16T00:43:41;99425.0;;;6.05;100.0
34454;BME280;60061;52.080;5.312;2023-01-16T00:45:18;99422.0;;;5.84;100.0
34454;BME280;60061;52.080;5.312;2023-01-16T00:46:54;99421.0;;;5.78;100.0
34454;BME280;60061;52.080;5.312;2023-01-16T00:50:09;99415.0;;;5.65;100.0
34454;BME280;60061;52.080;5.312;2023-01-16T00:51:47;99410.0;;;5.61;100.0
34454;BME280;60061;52.080;5.312;2023-01-16T00:53:24;99403.0;;;5.75;100.0
34454;BME280;60061;52.080;5.312;2023-01-16T00:56:37;99400.0;;;5.61;100.0
34454;BME280;60061;52.080;5.312;2023-01-16T00:58:14;99397.0;;;5.55;100.0
34454;BME280;60061;52.080;5.312;2023-01-16T00:59:51;99391.0;;;5.46;100.0
34454;BME280;60061;52.080;5.312;2023-01-16T01:01:28;99384.0;;;5.71;100.0
34454;BME280;60061;52.080;5.312;2023-01-16T01:04:42;99384.0;;;5.59;100.0
34454;BME280;60061;52.080;5.312;2023-01-16T01:06:19;99389.0;;;5.46;100.0
34454;BME280;60061;52.080;5.312;2023-01-16T01:07:56;99385.0;;;5.51;100.0
34454;BME280;60061;52.080;5.312;2023-01-16T01:11:13;99381.0;;;5.67;100.0
34454;BME280;60061;52.080;5.312;2023-01-16T01:12:52;99380.0;;;5.58;100.0
34454;BME280;60061;52.080;5.312;2023-01-16T01:14:30;99370.0;;;5.64;100.0
34454;BME280;60061;52.080;5.312;2023-01-16T01:16:08;99368.0;;;5.68;100.0
34454;BME280;60061;52.080;5.312;2023-01-16T01:19:22;99364.0;;;5.77;100.0
34454;BME280;60061;52.080;5.312;2023-01-16T01:20:59;99362.0;;;5.66;100.0
34454;BME280;60061;52.080;5.312;2023-01-16T01:22:36;99356.0;;;5.63;100.0
34454;BME280;60061;52.080;5.312;2023-01-16T01:25:52;99355.0;;;5.49;100.0
34454;BME280;60061;52.080;5.312;2023-01-16T01:27:30;99341.0;;;5.68;100.0
34454;BME280;60061;52.080;5.312;2023-01-16T01:29:07;99335.0;;;5.6;100.0
34454;BME280;60061;52.080;5.312;2023-01-16T01:30:44;99333.0;;;5.68;100.0
34454;BME280;60061;52.080;5.312;2023-01-16T01:33:57;99328.0;;;5.73;100.0
34454;BME280;60061;52.080;5.312;2023-01-16T01:35:33;99330.0;;;5.73;100.0
34454;BME280;60061;52.080;5.312;2023-01-16T01:37:10;99326.0;;;5.7;100.0
34454;BME280;60061;52.080;5.312;2023-01-16T01:40:26;99330.0;;;5.38;100.0
34454;BME280;60061;52.080;5.312;2023-01-16T01:43:12;99322.0;;;5.46;100.0
34454;BME280;60061;52.080;5.312;2023-01-16T01:44:53;99317.0;;;5.31;100.0
34454;BME280;60061;52.080;5.312;2023-01-16T01:46:34;99311.0;;;5.21;100.0
34454;BME280;60061;52.080;5.312;2023-01-16T01:48:21;99313.0;;;5.28;100.0
34454;BME280;60061;52.080;5.312;2023-01-16T01:50:03;99312.0;;;5.35;100.0
34454;BME280;60061;52.080;5.312;2023-01-16T01:51:51;99298.0;;;5.57;100.0
34454;BME280;60061;52.080;5.312;2023-01-16T01:55:20;99306.0;;;5.29;100.0
34454;BME280;60061;52.080;5.312;2023-01-16T01:57:02;99305.0;;;5.39;100.0
34454;BME280;60061;52.080;5.312;2023-01-16T01:58:41;99298.0;;;5.58;100.0
34454;BME280;60061;52.080;5.312;2023-01-16T02:00:21;99295.0;;;5.54;100.0
34454;BME280;60061;52.080;5.312;2023-01-16T02:03:40;99291.0;;;5.43;100.0
34454;BME280;60061;52.080;5.312;2023-01-16T02:05:22;99282.0;;;5.48;100.0
34454;BME280;60061;52.080;5.312;2023-01-16T02:07:04;99282.0;;;5.6;100.0
34454;BME280;60061;52.080;5.312;2023-01-16T02:08:44;99282.0;;;5.4;100.0
34454;BME280;60061;52.080;5.312;2023-01-16T02:12:10;99280.0;;;5.11;100.0
34454;BME280;60061;52.080;5.312;2023-01-16T02:13:48;99274.0;;;5.43;100.0
34454;BME280;60061;52.080;5.312;2023-01-16T02:15:26;99264.0;;;5.14;100.0
34454;BME280;60061;52.080;5.312;2023-01-16T02:19:33;99266.0;;;5.43;100.0
34454;BME280;60061;52.080;5.312;2023-01-16T02:21:31;99264.0;;;5.15;100.0
34454;BME280;60061;52.080;5.312;2023-01-16T02:27:13;99252.0;;;4.55;100.0
34454;BME280;60061;52.080;5.312;2023-01-16T02:30:08;99253.0;;;4.89;100.0
34454;BME280;60061;52.080;5.312;2023-01-16T02:33:29;99243.0;;;4.83;100.0
34454;BME280;60061;52.080;5.312;2023-01-16T02:35:25;99246.0;;;4.72;100.0
34454;BME280;60061;52.080;5.312;2023-01-16T02:38:13;99233.0;;;5.0;100.0
34454;BME280;60061;52.080;5.312;2023-01-16T02:40:06;99223.0;;;4.91;100.0
34454;BME280;60061;52.080;5.312;2023-01-16T02:43:33;99216.0;;;4.7;100.0
34454;BME280;60061;52.080;5.312;2023-01-16T02:45:18;99213.0;;;4.93;100.0
34454;BME280;60061;52.080;5.312;2023-01-16T02:47:05;99214.0;;;4.83;100.0
34454;BME280;60061;52.080;5.312;2023-01-16T02:48:49;99210.0;;;5.04;100.0
34454;BME280;60061;52.080;5.312;2023-01-16T02:50:38;99208.0;;;5.03;100.0
34454;BME280;60061;52.080;5.312;2023-01-16T02:52:23;99209.0;;;4.82;100.0
34454;BME280;60061;52.080;5.312;2023-01-16T07:07:57;98493.0;;;5.12;100.0
34454;BME280;60061;52.080;5.312;2023-01-16T07:11:11;98486.0;;;5.03;100.0
34454;BME280;60061;52.080;5.312;2023-01-16T07:12:48;98485.0;;;4.89;100.0
34454;BME280;60061;52.080;5.312;2023-01-16T07:22:46;98453.0;;;5.0;100.0
34454;BME280;60061;52.080;5.312;2023-01-16T07:24:25;98445.0;;;4.87;100.0
34454;BME280;60061;52.080;5.312;2023-01-16T07:27:46;98441.0;;;4.79;100.0
34454;BME280;60061;52.080;5.312;2023-01-16T07:29:24;98430.0;;;4.91;100.0
34454;BME280;60061;52.080;5.312;2023-01-16T07:31:04;98421.0;;;4.87;100.0
34454;BME280;60061;52.080;5.312;2023-01-16T07:32:43;98419.0;;;4.72;100.0
34454;BME280;60061;52.080;5.312;2023-01-16T07:35:58;98412.0;;;4.71;100.0
34454;BME280;60061;52.080;5.312;2023-01-16T07:37:35;98399.0;;;4.87;100.0
34454;BME280;60061;52.080;5.312;2023-01-16T07:39:12;98401.0;;;4.76;100.0
34454;BME280;60061;52.080;5.312;2023-01-16T07:42:26;98392.0;;;4.7;100.0
34454;BME280;60061;52.080;5.312;2023-01-16T07:44:03;98384.0;;;4.8;100.0
34454;BME280;60061;52.080;5.312;2023-01-16T07:45:40;98382.0;;;4.88;100.0
34454;BME280;60061;52.080;5.312;2023-01-16T07:47:17;98369.0;;;4.88;100.0
34454;BME280;60061;52.080;5.312;2023-01-16T07:50:32;98355.0;;;4.79;100.0
34454;BME280;60061;52.080;5.312;2023-01-16T07:52:09;98352.0;;;4.91;100.0
34454;BME280;60061;52.080;5.312;2023-01-16T07:53:45;98340.0;;;4.86;100.0
34454;BME280;60061;52.080;5.312;2023-01-16T07:57:00;98332.0;;;4.86;100.0
34454;BME280;60061;52.080;5.312;2023-01-16T07:58:41;98319.0;;;4.86;100.0
34454;BME280;60061;52.080;5.312;2023-01-16T08:00:19;98327.0;;;4.8;100.0
34454;BME280;60061;52.080;5.312;2023-01-16T08:01:56;98317.0;;;4.83;100.0
34454;BME280;60061;52.080;5.312;2023-01-16T08:05:10;98313.0;;;4.86;100.0
34454;BME280;60061;52.080;5.312;2023-01-16T08:06:46;98305.0;;;4.75;100.0
34454;BME280;60061;52.080;5.312;2023-01-16T08:08:25;98302.0;;;4.8;100.0
34454;BME280;60061;52.080;5.312;2023-01-16T08:11:46;98297.0;;;4.79;100.0
34454;BME280;60061;52.080;5.312;2023-01-16T08:13:23;98288.0;;;4.82;100.0
34454;BME280;60061;52.080;5.312;2023-01-16T08:15:00;98277.0;;;4.83;100.0
34454;BME280;60061;52.080;5.312;2023-01-16T08:16:37;98266.0;;;4.75;100.0
34454;BME280;60061;52.080;5.312;2023-01-16T08:19:51;98255.0;;;4.79;100.0
34454;BME280;60061;52.080;5.312;2023-01-16T08:21:29;98254.0;;;4.82;100.0
34454;BME280;60061;52.080;5.312;2023-01-16T08:23:06;98245.0;;;4.74;100.0
34454;BME280;60061;52.080;5.312;2023-01-16T08:26:19;98243.0;;;4.74;100.0
34454;BME280;60061;52.080;5.312;2023-01-16T08:27:55;98237.0;;;4.78;100.0
34454;BME280;60061;52.080;5.312;2023-01-16T08:29:32;98234.0;;;4.82;100.0
34454;BME280;60061;52.080;5.312;2023-01-16T08:32:49;98227.0;;;4.83;100.0
34454;BME280;60061;52.080;5.312;2023-01-16T08:34:27;98224.0;;;4.62;100.0
34454;BME280;60061;52.080;5.312;2023-01-16T08:36:05;98213.0;;;4.79;100.0
34454;BME280;60061;52.080;5.312;2023-01-16T08:37:48;98211.0;;;4.66;100.0
34454;BME280;60061;52.080;5.312;2023-01-16T08:41:03;98208.0;;;4.74;100.0
34454;BME280;60061;52.080;5.312;2023-01-16T08:51:29;98182.0;;;4.68;100.0
34454;BME280;60061;52.080;5.312;2023-01-16T08:53:07;98169.0;;;4.71;100.0
34454;BME280;60061;52.080;5.312;2023-01-16T08:54:44;98177.0;;;4.5;100.0
34454;BME280;60061;52.080;5.312;2023-01-16T08:56:21;98165.0;;;4.68;100.0
34454;BME280;60061;52.080;5.312;2023-01-16T08:59:36;98158.0;;;4.7;100.0
34454;BME280;60061;52.080;5.312;2023-01-16T09:01:15;98155.0;;;4.64;100.0
34454;BME280;60061;52.080;5.312;2023-01-16T09:02:55;98162.0;;;4.64;100.0
34454;BME280;60061;52.080;5.312;2023-01-16T09:06:11;98151.0;;;4.72;100.0
34454;BME280;60061;52.080;5.312;2023-01-16T09:07:49;98143.0;;;4.75;100.0
34454;BME280;60061;52.080;5.312;2023-01-16T09:15:15;98128.0;;;4.75;100.0
34454;BME280;60061;52.080;5.312;2023-01-16T09:18:28;98120.0;;;4.83;100.0
34454;BME280;60061;52.080;5.312;2023-01-16T09:20:05;98120.0;;;4.96;100.0
34454;BME280;60061;52.080;5.312;2023-01-16T09:21:42;98113.0;;;5.04;100.0
34454;BME280;60061;52.080;5.312;2023-01-16T09:24:55;98110.0;;;5.12;100.0
34454;BME280;60061;52.080;5.312;2023-01-16T09:26:32;98100.0;;;5.11;100.0
34454;BME280;60061;52.080;5.312;2023-01-16T09:28:08;98096.0;;;5.05;100.0
34454;BME280;60061;52.080;5.312;2023-01-16T09:31:21;98098.0;;;5.12;100.0
34454;BME280;60061;52.080;5.312;2023-01-16T09:32:57;98103.0;;;5.12;100.0
34454;BME280;60061;52.080;5.312;2023-01-16T09:34:34;98094.0;;;5.15;100.0
34454;BME280;60061;52.080;5.312;2023-01-16T09:36:10;98086.0;;;5.13;100.0
34454;BME280;60061;52.080;5.312;2023-01-16T09:39:23;98084.0;;;5.22;100.0
34454;BME280;60061;52.080;5.312;2023-01-16T09:41:00;98081.0;;;5.17;100.0
34454;BME280;60061;52.080;5.312;2023-01-16T09:43:46;98084.0;;;5.08;100.0
34454;BME280;60061;52.080;5.312;2023-01-16T09:45:27;98074.0;;;5.0;100.0
34454;BME280;60061;52.080;5.312;2023-01-16T09:47:06;98068.0;;;4.97;100.0
34454;BME280;60061;52.080;5.312;2023-01-16T09:48:48;98064.0;;;5.13;100.0
34454;BME280;60061;52.080;5.312;2023-01-16T09:58:46;98058.0;;;5.16;100.0
34454;BME280;60061;52.080;5.312;2023-01-16T10:00:38;98050.0;;;5.24;100.0
34454;BME280;60061;52.080;5.312;2023-01-16T10:02:20;98043.0;;;5.07;100.0
34454;BME280;60061;52.080;5.312;2023-01-16T10:04:06;98046.0;;;5.26;100.0
34454;BME280;60061;52.080;5.312;2023-01-16T10:05:58;98046.0;;;5.26;100.0
34454;BME280;60061;52.080;5.312;2023-01-16T10:07:47;98044.0;;;5.25;100.0
34454;BME280;60061;52.080;5.312;2023-01-16T10:11:28;98043.0;;;5.35;100.0
34454;BME280;60061;52.080;5.312;2023-01-16T10:13:24;98035.0;;;5.37;100.0
34454;BME280;60061;52.080;5.312;2023-01-16T10:15:17;98033.0;;;5.26;100.0
34454;BME280;60061;52.080;5.312;2023-01-16T10:17:10;98032.0;;;5.33;100.0
34454;BME280;60061;52.080;5.312;2023-01-16T10:18:56;98035.0;;;5.05;100.0
34454;BME280;60061;52.080;5.312;2023-01-16T10:20:47;98038.0;;;5.23;100.0
34454;BME280;60061;52.080;5.312;2023-01-16T10:22:39;98025.0;;;5.22;100.0
34454;BME280;60061;52.080;5.312;2023-01-16T10:24:28;98019.0;;;5.19;100.0
34454;BME280;60061;52.080;5.312;2023-01-16T10:28:03;98018.0;;;5.21;100.0
34454;BME280;60061;52.080;5.312;2023-01-16T10:29:51;98015.0;;;5.13;100.0
34454;BME280;60061;52.080;5.312;2023-01-16T10:31:32;98014.0;;;5.35;100.0
34454;BME280;60061;52.080;5.312;2023-01-16T10:33:14;98015.0;;;5.37;100.0
34454;BME280;60061;52.080;5.312;2023-01-16T10:35:02;98000.0;;;5.29;100.0
34454;BME280;60061;52.080;5.312;2023-01-16T10:38:33;98003.0;;;5.27;100.0
34454;BME280;60061;52.080;5.312;2023-01-16T10:40:16;97991.0;;;5.2;100.0
34454;BME280;60061;52.080;5.312;2023-01-16T10:50:15;97980.0;;;5.28;100.0
34454;BME280;60061;52.080;5.312;2023-01-16T10:51:52;97974.0;;;5.23;100.0
34454;BME280;60061;52.080;5.312;2023-01-16T10:53:28;97968.0;;;5.29;100.0
34454;BME280;60061;52.080;5.312;2023-01-16T10:56:45;97970.0;;;5.3;100.0
34454;BME280;60061;52.080;5.312;2023-01-16T10:58:24;97964.0;;;5.32;100.0
34454;BME280;60061;52.080;5.312;2023-01-16T11:00:06;97956.0;;;5.16;100.0
34454;BME280;60061;52.080;5.312;2023-01-16T11:03:31;97947.0;;;5.32;100.0
34454;BME280;60061;52.080;5.312;2023-01-16T11:05:26;97948.0;;;5.33;100.0
34454;BME280;60061;52.080;5.312;2023-01-16T11:07:21;97946.0;;;5.42;100.0
34454;BME280;60061;52.080;5.312;2023-01-16T11:09:02;97940.0;;;5.38;100.0
34454;BME280;60061;52.080;5.312;2023-01-16T11:10:40;97936.0;;;5.46;100.0
34454;BME280;60061;52.080;5.312;2023-01-16T11:18:48;97925.0;;;5.47;100.0
34454;BME280;60061;52.080;5.312;2023-01-16T11:20:28;97913.0;;;5.41;100.0
34454;BME280;60061;52.080;5.312;2023-01-16T11:22:20;97909.0;;;5.46;100.0
34454;BME280;60061;52.080;5.312;2023-01-16T11:24:01;97900.0;;;5.43;100.0
34454;BME280;60061;52.080;5.312;2023-01-16T11:25:39;97901.0;;;5.53;100.0
34454;BME280;60061;52.080;5.312;2023-01-16T11:27:19;97903.0;;;5.63;100.0
34454;BME280;60061;52.080;5.312;2023-01-16T11:30:38;97893.0;;;5.66;100.0
34454;BME280;60061;52.080;5.312;2023-01-16T11:32:19;97887.0;;;5.78;100.0
34454;BME280;60061;52.080;5.312;2023-01-16T11:34:02;97882.0;;;5.63;100.0
34454;BME280;60061;52.080;5.312;2023-01-16T11:35:51;97881.0;;;5.66;100.0
34454;BME280;60061;52.080;5.312;2023-01-16T11:37:29;97875.0;;;5.71;100.0
34454;BME280;60061;52.080;5.312;2023-01-16T11:40:52;97861.0;;;5.76;100.0
34454;BME280;60061;52.080;5.312;2023-01-16T11:46:37;97858.0;;;6.0;100.0
34454;BME280;60061;52.080;5.312;2023-01-16T11:48:36;97855.0;;;6.1;100.0
34454;BME280;60061;52.080;5.312;2023-01-16T11:50:26;97854.0;;;6.04;100.0
34454;BME280;60061;52.080;5.312;2023-01-16T11:52:12;97851.0;;;6.06;100.0
34454;BME280;60061;52.080;5.312;2023-01-16T11:55:34;97844.0;;;6.07;100.0
34454;BME280;60061;52.080;5.312;2023-01-16T11:57:27;97850.0;;;6.03;100.0
34454;BME280;60061;52.080;5.312;2023-01-16T11:59:18;97833.0;;;6.13;100.0
34454;BME280;60061;52.080;5.312;2023-01-16T12:01:11;97832.0;;;6.1;100.0
34454;BME280;60061;52.080;5.312;2023-01-16T12:04:02;97827.0;;;6.14;100.0
34454;BME280;60061;52.080;5.312;2023-01-16T12:06:08;97821.0;;;6.07;100.0
34454;BME280;60061;52.080;5.312;2023-01-16T12:07:59;97817.0;;;5.89;100.0
34454;BME280;60061;52.080;5.312;2023-01-16T12:09:49;97814.0;;;6.14;100.0
34454;BME280;60061;52.080;5.312;2023-01-16T12:11:44;97810.0;;;6.1;100.0
34454;BME280;60061;52.080;5.312;2023-01-16T12:14:45;97808.0;;;6.16;100.0
34454;BME280;60061;52.080;5.312;2023-01-16T12:16:31;97798.0;;;6.1;100.0
34454;BME280;60061;52.080;5.312;2023-01-16T12:18:25;97795.0;;;6.19;100.0
34454;BME280;60061;52.080;5.312;2023-01-16T12:20:16;97792.0;;;6.19;100.0
34454;BME280;60061;52.080;5.312;2023-01-16T12:22:01;97782.0;;;6.09;100.0
34454;BME280;60061;52.080;5.312;2023-01-16T12:23:56;97778.0;;;6.13;100.0
34454;BME280;60061;52.080;5.312;2023-01-16T12:26:01;97771.0;;;6.2;100.0
34454;BME280;60061;52.080;5.312;2023-01-16T12:27:49;97773.0;;;6.27;100.0
34454;BME280;60061;52.080;5.312;2023-01-16T12:31:46;97772.0;;;6.34;100.0
34454;BME280;60061;52.080;5.312;2023-01-16T12:34:01;97768.0;;;6.47;100.0
34454;BME280;60061;52.080;5.312;2023-01-16T12:37:46;97767.0;;;6.42;100.0
34454;BME280;60061;52.080;5.312;2023-01-16T12:39:58;97766.0;;;6.4;100.0
34454;BME280;60061;52.080;5.312;2023-01-16T12:43:38;97762.0;;;6.44;100.0
34454;BME280;60061;52.080;5.312;2023-01-16T12:45:30;97753.0;;;6.44;100.0
34454;BME280;60061;52.080;5.312;2023-01-16T12:47:27;97747.0;;;6.38;100.0
34454;BME280;60061;52.080;5.312;2023-01-16T12:49:24;97750.0;;;6.45;100.0
34454;BME280;60061;52.080;5.312;2023-01-16T12:51:17;97743.0;;;6.46;100.0
34454;BME280;60061;52.080;5.312;2023-01-16T12:53:14;97733.0;;;6.45;100.0
34454;BME280;60061;52.080;5.312;2023-01-16T12:55:17;97739.0;;;6.37;100.0
34454;BME280;60061;52.080;5.312;2023-01-16T12:57:18;97732.0;;;6.33;100.0
34454;BME280;60061;52.080;5.312;2023-01-16T12:59:22;97725.0;;;6.35;100.0
34454;BME280;60061;52.080;5.312;2023-01-16T13:02:52;97726.0;;;6.28;100.0
34454;BME280;60061;52.080;5.312;2023-01-16T13:04:35;97723.0;;;6.41;100.0
34454;BME280;60061;52.080;5.312;2023-01-16T13:06:17;97720.0;;;6.43;100.0
34454;BME280;60061;52.080;5.312;2023-01-16T13:08:01;97713.0;;;6.45;100.0
34454;BME280;60061;52.080;5.312;2023-01-16T13:09:44;97712.0;;;6.46;100.0
34454;BME280;60061;52.080;5.312;2023-01-16T13:15:32;97706.0;;;6.5;100.0
34454;BME280;60061;52.080;5.312;2023-01-16T13:17:14;97701.0;;;6.6;100.0
34454;BME280;60061;52.080;5.312;2023-01-16T13:18:58;97697.0;;;6.51;100.0
34454;BME280;60061;52.080;5.312;2023-01-16T13:20:36;97693.0;;;6.61;100.0
34454;BME280;60061;52.080;5.312;2023-01-16T13:22:20;97693.0;;;6.59;100.0
34454;BME280;60061;52.080;5.312;2023-01-16T13:25:42;97688.0;;;6.43;100.0
34454;BME280;60061;52.080;5.312;2023-01-16T13:27:25;97685.0;;;6.72;100.0
34454;BME280;60061;52.080;5.312;2023-01-16T13:29:19;97677.0;;;6.67;100.0
34454;BME280;60061;52.080;5.312;2023-01-16T13:31:02;97676.0;;;6.6;100.0
34454;BME280;60061;52.080;5.312;2023-01-16T13:32:45;97677.0;;;6.72;100.0
34454;BME280;60061;52.080;5.312;2023-01-16T13:36:17;97671.0;;;6.72;100.0
34454;BME280;60061;52.080;5.312;2023-01-16T13:38:18;97672.0;;;6.82;100.0
34454;BME280;60061;52.080;5.312;2023-01-16T13:41:24;97667.0;;;6.81;100.0
34454;BME280;60061;52.080;5.312;2023-01-16T13:45:49;97664.0;;;6.68;100.0
34454;BME280;60061;52.080;5.312;2023-01-16T13:47:31;97667.0;;;6.79;100.0
34454;BME280;60061;52.080;5.312;2023-01-16T13:50:58;97671.0;;;6.78;100.0
34454;BME280;60061;52.080;5.312;2023-01-16T13:52:35;97671.0;;;6.83;100.0
34454;BME280;60061;52.080;5.312;2023-01-16T13:54:20;97665.0;;;6.93;100.0
34454;BME280;60061;52.080;5.312;2023-01-16T13:56:05;97665.0;;;6.67;100.0
34454;BME280;60061;52.080;5.312;2023-01-16T13:57:46;97665.0;;;6.9;100.0
34454;BME280;60061;52.080;5.312;2023-01-16T14:01:36;97662.0;;;6.91;100.0
34454;BME280;60061;52.080;5.312;2023-01-16T14:03:29;97654.0;;;7.02;100.0
34454;BME280;60061;52.080;5.312;2023-01-16T14:05:17;97653.0;;;7.02;100.0
34454;BME280;60061;52.080;5.312;2023-01-16T14:09:21;97649.0;;;6.96;100.0
34454;BME280;60061;52.080;5.312;2023-01-16T14:11:26;97645.0;;;6.96;100.0
34454;BME280;60061;52.080;5.312;2023-01-16T14:14:31;97648.0;;;6.88;100.0
34454;BME280;60061;52.080;5.312;2023-01-16T14:17:00;97641.0;;;6.91;100.0
34454;BME280;60061;52.080;5.312;2023-01-16T14:18:40;97644.0;;;6.79;100.0
34454;BME280;60061;52.080;5.312;2023-01-16T14:24:10;97647.0;;;6.8;100.0
34454;BME280;60061;52.080;5.312;2023-01-16T14:26:33;97643.0;;;6.9;100.0
34454;BME280;60061;52.080;5.312;2023-01-16T14:28:16;97638.0;;;6.83;100.0
34454;BME280;60061;52.080;5.312;2023-01-16T14:29:57;97640.0;;;6.79;100.0
34454;BME280;60061;52.080;5.312;2023-01-16T14:31:40;97635.0;;;6.9;100.0
34454;BME280;60061;52.080;5.312;2023-01-16T14:33:22;97637.0;;;6.85;100.0
34454;BME280;60061;52.080;5.312;2023-01-16T14:36:39;97643.0;;;6.99;100.0
34454;BME280;60061;52.080;5.312;2023-01-16T14:38:18;97635.0;;;6.86;100.0
34454;BME280;60061;52.080;5.312;2023-01-16T14:39:57;97641.0;;;7.03;100.0
34454;BME280;60061;52.080;5.312;2023-01-16T14:55:15;97638.0;;;7.05;100.0
34454;BME280;60061;52.080;5.312;2023-01-16T14:56:57;97630.0;;;7.05;100.0
34454;BME280;60061;52.080;5.312;2023-01-16T14:58:38;97634.0;;;6.73;100.0
34454;BME280;60061;52.080;5.312;2023-01-16T15:02:34;97641.0;;;6.68;100.0
34454;BME280;60061;52.080;5.312;2023-01-16T15:04:14;97636.0;;;6.85;100.0
34454;BME280;60061;52.080;5.312;2023-01-16T15:05:56;97640.0;;;7.08;100.0
34454;BME280;60061;52.080;5.312;2023-01-16T15:07:38;97639.0;;;6.93;100.0
34454;BME280;60061;52.080;5.312;2023-01-16T15:09:18;97643.0;;;6.98;100.0
34454;BME280;60061;52.080;5.312;2023-01-16T15:10:57;97643.0;;;6.65;100.0
34454;BME280;60061;52.080;5.312;2023-01-16T15:14:33;97642.0;;;7.01;100.0
34454;BME280;60061;52.080;5.312;2023-01-16T15:16:19;97640.0;;;7.02;100.0
34454;BME280;60061;52.080;5.312;2023-01-16T15:22:15;97642.0;;;6.82;100.0
34454;BME280;60061;52.080;5.312;2023-01-16T15:23:55;97636.0;;;6.93;100.0
34454;BME280;60061;52.080;5.312;2023-01-16T15:25:48;97638.0;;;6.93;100.0
34454;BME280;60061;52.080;5.312;2023-01-16T15:29:21;97638.0;;;6.65;100.0
34454;BME280;60061;52.080;5.312;2023-01-16T15:31:13;97638.0;;;6.81;100.0
34454;BME280;60061;52.080;5.312;2023-01-16T15:32:53;97637.0;;;6.92;100.0
34454;BME280;60061;52.080;5.312;2023-01-16T15:34:31;97641.0;;;7.0;100.0
34454;BME280;60061;52.080;5.312;2023-01-16T15:36:15;97643.0;;;6.96;100.0
34454;BME280;60061;52.080;5.312;2023-01-16T15:39:37;97643.0;;;7.02;100.0
34454;BME280;60061;52.080;5.312;2023-01-16T15:41:20;97640.0;;;7.12;100.0
34454;BME280;60061;52.080;5.312;2023-01-16T15:47:24;97642.0;;;7.2;100.0
34454;BME280;60061;52.080;5.312;2023-01-16T15:50:07;97636.0;;;7.29;100.0
34454;BME280;60061;52.080;5.312;2023-01-16T15:51:49;97630.0;;;7.2;100.0
34454;BME280;60061;52.080;5.312;2023-01-16T15:53:31;97631.0;;;7.25;100.0
34454;BME280;60061;52.080;5.312;2023-01-16T15:55:16;97627.0;;;7.18;100.0
34454;BME280;60061;52.080;5.312;2023-01-16T15:56:54;97634.0;;;7.14;100.0
34454;BME280;60061;52.080;5.312;2023-01-16T16:00:22;97634.0;;;7.23;100.0
34454;BME280;60061;52.080;5.312;2023-01-16T16:02:16;97633.0;;;7.12;100.0
34454;BME280;60061;52.080;5.312;2023-01-16T16:03:54;97630.0;;;7.11;100.0
34454;BME280;60061;52.080;5.312;2023-01-16T16:05:32;97629.0;;;7.17;100.0
34454;BME280;60061;52.080;5.312;2023-01-16T16:08:48;97633.0;;;7.15;100.0
34454;BME280;60061;52.080;5.312;2023-01-16T16:12:03;97633.0;;;7.1;100.0
34454;BME280;60061;52.080;5.312;2023-01-16T16:18:15;97641.0;;;7.19;100.0
34454;BME280;60061;52.080;5.312;2023-01-16T16:19:53;97634.0;;;7.05;100.0
34454;BME280;60061;52.080;5.312;2023-01-16T16:23:13;97637.0;;;7.06;100.0
34454;BME280;60061;52.080;5.312;2023-01-16T16:24:52;97637.0;;;7.1;100.0
34454;BME280;60061;52.080;5.312;2023-01-16T16:26:29;97641.0;;;6.92;100.0
34454;BME280;60061;52.080;5.312;2023-01-16T16:29:55;97640.0;;;6.97;100.0
34454;BME280;60061;52.080;5.312;2023-01-16T16:31:33;97643.0;;;6.83;100.0
34454;BME280;60061;52.080;5.312;2023-01-16T16:33:15;97643.0;;;7.01;100.0
34454;BME280;60061;52.080;5.312;2023-01-16T16:34:54;97639.0;;;6.97;100.0
34454;BME280;60061;52.080;5.312;2023-01-16T16:38:23;97636.0;;;6.91;100.0
34454;BME280;60061;52.080;5.312;2023-01-16T16:40:06;97637.0;;;7.02;100.0
34454;BME280;60061;52.080;5.312;2023-01-16T16:42:53;97634.0;;;6.99;100.0
34454;BME280;60061;52.080;5.312;2023-01-16T16:44:36;97633.0;;;7.04;100.0
34454;BME280;60061;52.080;5.312;2023-01-16T16:46:30;97638.0;;;7.07;100.0
34454;BME280;60061;52.080;5.312;2023-01-16T16:48:28;97635.0;;;6.97;100.0
34454;BME280;60061;52.080;5.312;2023-01-16T16:50:39;97638.0;;;7.08;100.0
34454;BME280;60061;52.080;5.312;2023-01-16T16:52:48;97639.0;;;7.08;100.0
34454;BME280;60061;52.080;5.312;2023-01-16T16:54:26;97640.0;;;7.05;100.0
34454;BME280;60061;52.080;5.312;2023-01-16T16:56:08;97638.0;;;6.92;100.0
34454;BME280;60061;52.080;5.312;2023-01-16T16:57:45;97646.0;;;6.99;100.0